Smithton, PA (15479)

6:39 PM EST on February 12, 2016 (GMT -0500)
Rostraver Township | | Change Station
CLOSE
Current Station
Personal Weather Station
Location: Belle Vernon, PA
Elevation: 994 ft
Nearby Weather Stations
Active Advisory: Wind Chill Advisory

Elev 994 ft 40.15 °N, 79.79 °W | Updated 6 seconds ago

Snow
Snow
19.9 °F
Feels Like 20 °F
N
2.5
Wind Variable Wind from WSW
Gusts 4.9 mph

Today
High -- | Low -- °F
--% Chance of Precip.
Yesterday
High -- | Low -- °F
Precip. -- in
Pressure 29.94 in
Visibility 3.0 miles
Clouds Overcast 5000 ft
Windchill 20 °F
Dew Point 12 °F
Humidity 70%
Rainfall 0.00 in
Snow Depth Not available.
7:16 AM 5:50 PM
Waxing Crescent, 24% visible
SPECI KAGC 122311Z 23007KT 3SM -SN HZ OVC050 M07/M10 A2994 RMK AO2 P0000 T10671100
Pressure 29.94 in
Visibility 3.0 miles
Clouds Overcast 5000 ft
Windchill 20 °F
Dew Point 12 °F
Humidity 70%
Rainfall 0.00 in
Snow Depth Not available.
7:16 AM 5:50 PM
Waxing Crescent, 24% visible
SPECI KAGC 122311Z 23007KT 3SM -SN HZ OVC050 M07/M10 A2994 RMK AO2 P0000 T10671100

10-Day Weather Forecast

Almanac

Astronomy

Feb. 12, 2016 Rise Set
Actual Time
Civil Twilight
Nautical Twilight
Astronomical Twilight
Moon
Length of Visible Light
Length of Day
Tomorrow will be .
, % of the Moon is Illuminated

Today's Extremes

State Highs State Lows

Community

WunderPhotos

Upload Photos

1,892,437 photos uploaded!

WunderBlog® & News

Nearby

Air Quality

  Air Quality AQ Index Pollutant
Not available.

Snow Depth

Station Depth Elevation

Earthquake Activity

City Distance Mag. Time & Date
Minimum magnitude displayed is 2.5.

Coastal Water Temperatures

Place Temperature

Stations

Nearby Weather Stations

Station Location Temp. Windchill Dew Point Humidity Wind Precip. Elev Updated Type
                   

Watches & Warnings

Wind Chill Advisory
Issued: 3:28 PM EST Feb. 12, 2016 – National Weather Service

... Wind Chill Advisory remains in effect from midnight tonight to
9 am EST Sunday...

* wind chill... as low as 17 below due to temperatures 4 below to
14 above zero... and winds northwest 10 to 20 mph with gusts up
to 35 mph.

* Impacts... frost bite and hypothermia are possible if
precautions are not taken.